East Dulwich, United Kingdom
Current Conditions -  °F | °C
As of 9:50 PM on Friday 28 Nov 2014 (Local Time) from EGLC Reporting Station
Rain Showers Rain Showers  
Wind Chill: 12°   Ceiling: Unl
Heat Index: 12°   Visibility: 5mi
Dew Point: 10°   Wind: 14mph
Humidity: 88%   Direction: 80°E
Pressure: 29.74"   Gusts: NA
Location:  51.45°N, 0.07°W
Report Text: EGLC 282150Z 08012KT 8000 -SHRA FEW045 12/10 Q1007
Loading
Personal Weather Stations






























Interactive Weather Map New forecast layout! Learn more

10-Day Weather Forecast

Advertisements
Track Severe Weather on mobile